Adena, Ohio
Current Conditions -  °F | °C
As of 4:53 AM on Monday 26 Jan 2015 (Local Time) from KHLG Reporting Station
Overcast Overcast  
Wind Chill: 20°   Ceiling: 500
Heat Index: 28°   Visibility: 10mi
Dew Point: 25°   Wind: 8mph
Humidity: 88%   Direction: 20°NNE
Pressure: 29.67"   Gusts: NA
Location:  40.22°N, 80.87°W
Report Text: KHLG 260953Z AUTO 02007KT 10SM OVC005 M02/M04 A2967 RMK AO2 SNB0855E14 SLP062 P0000 T10221039
Loading
Personal Weather Stations






























Interactive Weather Map New forecast layout! Learn more

10-Day Weather Forecast

Advertisements
Track Severe Weather on mobile